Time;durP1;ratioP1;P1;durP2;ratioP2;P2;SDS_P1;SDS_P2;PMS_P1;PMS_P2;Temp;Humidity;BMP_temperature;BMP_pressure;BME280_temperature;BME280_humidity;BME280_pressure;Samples;Min_cycle;Max_cycle;Signal;HPM_P1;HPM_P2
2022/11/22 00:01:12;;;;;;;64.70;28.13;;;0.90;99.90;;;;;;5028493;28;20022;-40
2022/11/22 00:03:38;;;;;;;68.63;32.33;;;0.90;99.90;;;;;;5028824;28;20525;-40
2022/11/22 00:06:03;;;;;;;73.10;29.73;;;0.90;99.90;;;;;;5037459;28;20025;-40
2022/11/22 00:08:29;;;;;;;71.93;30.85;;;0.90;99.90;;;;;;5037062;28;20024;-40
2022/11/22 00:10:54;;;;;;;71.18;32.05;;;0.90;99.90;;;;;;5028301;28;20028;-40
2022/11/22 00:13:20;;;;;;;70.95;30.23;;;0.90;99.90;;;;;;5029147;28;20498;-40
2022/11/22 00:15:57;;;;;;;69.60;29.05;;;0.80;99.90;;;;;;5028768;28;20505;-40
2022/11/22 00:18:23;;;;;;;67.07;28.00;;;0.80;99.90;;;;;;5029466;28;20028;-40
2022/11/22 00:20:48;;;;;;;69.18;29.10;;;0.80;99.90;;;;;;5029016;28;20029;-40
2022/11/22 00:23:15;;;;;;;70.50;29.35;;;0.80;99.90;;;;;;5028548;28;20091;-40
2022/11/22 00:25:40;;;;;;;71.53;29.00;;;0.90;99.90;;;;;;5029053;28;20029;-40
2022/11/22 00:28:06;;;;;;;72.53;29.73;;;0.90;99.90;;;;;;5029639;28;20026;-40
2022/11/22 00:30:31;;;;;;;66.30;28.80;;;0.90;99.90;;;;;;5028974;28;20068;-40
2022/11/22 00:32:57;;;;;;;77.22;31.48;;;0.90;99.90;;;;;;5029028;28;20033;-40
2022/11/22 00:35:22;;;;;;;80.10;33.58;;;0.90;99.90;;;;;;5029179;28;20104;-40
2022/11/22 00:37:48;;;;;;;75.10;30.65;;;0.90;99.90;;;;;;5029410;28;20029;-40
2022/11/22 00:40:13;;;;;;;74.75;31.95;;;1.00;99.90;;;;;;5028568;28;20108;-40
2022/11/22 00:42:39;;;;;;;80.28;32.22;;;1.00;99.90;;;;;;5028304;28;20063;-40
2022/11/22 00:45:05;;;;;;;74.72;29.75;;;1.00;99.90;;;;;;5028979;28;20025;-40
2022/11/22 00:47:30;;;;;;;70.78;29.15;;;1.00;99.90;;;;;;5028845;28;20521;-40
2022/11/22 00:49:56;;;;;;;84.15;33.10;;;1.00;99.90;;;;;;5028867;28;20059;-40
2022/11/22 00:52:21;;;;;;;78.28;30.88;;;1.10;99.90;;;;;;5029155;28;20022;-40
2022/11/22 00:54:47;;;;;;;74.90;32.25;;;1.10;99.90;;;;;;5028411;28;20025;-40
2022/11/22 00:57:12;;;;;;;77.95;31.48;;;1.20;99.90;;;;;;5029003;28;20018;-40
2022/11/22 00:59:37;;;;;;;79.43;33.17;;;1.10;99.90;;;;;;5028542;28;20029;-40
2022/11/22 01:02:03;;;;;;;78.70;32.53;;;1.20;99.90;;;;;;5028729;28;20128;-40
2022/11/22 01:04:28;;;;;;;79.47;31.70;;;1.10;99.90;;;;;;5029059;28;20467;-40
2022/11/22 01:06:54;;;;;;;76.43;32.00;;;1.10;99.90;;;;;;5028831;28;20068;-40
2022/11/22 01:09:21;;;;;;;74.55;29.80;;;1.10;99.90;;;;;;5027084;28;20025;-40
2022/11/22 01:11:47;;;;;;;72.82;31.23;;;1.10;99.90;;;;;;5027648;28;20446;-40
2022/11/22 01:14:15;;;;;;;81.90;32.50;;;1.10;99.90;;;;;;5029061;28;20029;-40
2022/11/22 01:16:41;;;;;;;75.38;30.75;;;1.10;99.90;;;;;;5028875;28;20021;-40
2022/11/22 01:19:07;;;;;;;75.00;32.50;;;1.10;99.90;;;;;;5028460;28;20128;-40
2022/11/22 01:21:32;;;;;;;73.22;31.42;;;1.10;99.90;;;;;;5028373;28;20104;-40
2022/11/22 01:23:58;;;;;;;81.95;32.33;;;1.10;99.90;;;;;;5026890;28;20026;-40
2022/11/22 01:26:23;;;;;;;69.53;32.75;;;1.10;99.90;;;;;;5027677;28;20105;-40
2022/11/22 01:28:49;;;;;;;71.13;30.05;;;1.20;99.90;;;;;;5028436;28;20434;-40
2022/11/22 01:31:14;;;;;;;74.75;29.00;;;1.20;99.90;;;;;;5028149;28;20041;-40
2022/11/22 01:33:40;;;;;;;74.88;33.10;;;1.10;99.90;;;;;;5029056;28;20030;-40
2022/11/22 01:36:05;;;;;;;71.78;30.15;;;1.20;99.90;;;;;;5028135;28;20030;-40
2022/11/22 01:38:31;;;;;;;70.03;29.23;;;1.10;99.90;;;;;;5028901;28;20108;-40
2022/11/22 01:40:56;;;;;;;70.45;32.50;;;1.20;99.90;;;;;;5027827;28;20116;-40
2022/11/22 01:43:25;;;;;;;70.05;28.80;;;1.20;99.90;;;;;;5028604;28;20391;-40
2022/11/22 01:45:52;;;;;;;73.40;31.42;;;1.20;99.90;;;;;;5026984;28;20263;-40
2022/11/22 01:48:39;;;;;;;73.38;29.33;;;1.30;99.90;;;;;;5028502;28;20373;-40
2022/11/22 01:51:14;;;;;;;67.60;28.67;;;1.20;99.90;;;;;;5024430;28;20067;-40
2022/11/22 01:53:40;;;;;;;71.10;29.65;;;1.30;99.90;;;;;;5026741;28;20479;-40
2022/11/22 01:56:11;;;;;;;70.20;31.65;;;1.40;99.90;;;;;;5027000;28;20068;-40
2022/11/22 01:58:40;;;;;;;68.45;29.48;;;1.40;99.90;;;;;;5028225;28;20062;-40
2022/11/22 02:01:05;;;;;;;68.53;28.80;;;1.30;99.90;;;;;;5027562;28;20486;-40
2022/11/22 02:03:33;;;;;;;64.13;30.27;;;1.30;99.90;;;;;;5027977;28;20044;-40
2022/11/22 02:05:59;;;;;;;68.80;29.92;;;1.30;99.90;;;;;;5029358;28;20068;-40
2022/11/22 02:08:27;;;;;;;63.10;28.33;;;1.40;99.90;;;;;;5039842;28;20029;-40
2022/11/22 02:10:55;;;;;;;65.25;30.17;;;1.30;99.90;;;;;;5031124;28;20021;-40
2022/11/22 02:13:22;;;;;;;80.55;32.15;;;1.40;99.90;;;;;;5032089;28;20029;-41
2022/11/22 02:15:49;;;;;;;66.82;29.00;;;1.30;99.90;;;;;;5030105;28;20356;-40
2022/11/22 02:18:15;;;;;;;73.00;31.55;;;1.40;99.90;;;;;;5023480;28;20400;-40
2022/11/22 02:20:41;;;;;;;67.35;31.35;;;1.40;99.90;;;;;;5031089;28;20131;-40
2022/11/22 02:23:24;;;;;;;72.53;31.35;;;1.30;99.90;;;;;;5031861;28;20104;-40
2022/11/22 02:25:56;;;;;;;74.43;31.67;;;1.30;99.90;;;;;;5031703;28;20017;-40
2022/11/22 02:28:22;;;;;;;69.82;31.60;;;1.30;99.90;;;;;;5031666;28;20017;-40
2022/11/22 02:30:47;;;;;;;70.25;32.28;;;1.30;99.90;;;;;;5029555;28;20440;-40
2022/11/22 02:33:13;;;;;;;73.22;33.22;;;1.30;99.90;;;;;;5031490;28;20091;-40
2022/11/22 02:35:40;;;;;;;72.57;31.98;;;1.30;99.90;;;;;;5031723;28;20033;-40
2022/11/22 02:38:19;;;;;;;67.63;31.50;;;1.30;99.90;;;;;;5028766;28;20029;-40
2022/11/22 02:41:03;;;;;;;70.72;30.52;;;1.30;99.90;;;;;;5030586;28;20549;-40
2022/11/22 02:43:38;;;;;;;65.03;30.42;;;1.40;99.90;;;;;;5031404;28;20025;-41
2022/11/22 02:46:09;;;;;;;73.47;32.55;;;1.40;99.90;;;;;;5031194;28;20017;-40
2022/11/22 02:48:39;;;;;;;;;;;1.40;99.90;;;;;;5031936;28;20075;-41
2022/11/22 02:51:04;;;;;;;76.82;33.85;;;1.40;99.90;;;;;;5031213;28;19913;-40
2022/11/22 02:53:30;;;;;;;74.45;31.70;;;1.40;99.90;;;;;;5030185;28;20029;-40
2022/11/22 02:55:56;;;;;;;62.78;32.25;;;1.30;99.90;;;;;;5030664;28;20052;-40
2022/11/22 02:58:21;;;;;;;70.05;31.98;;;1.40;99.90;;;;;;5030943;28;20040;-41
2022/11/22 03:00:47;;;;;;;67.80;29.88;;;1.30;99.90;;;;;;5030308;28;20471;-40
2022/11/22 03:03:12;;;;;;;75.80;33.03;;;1.40;99.90;;;;;;5030938;28;20029;-40
2022/11/22 03:05:37;;;;;;;70.47;32.50;;;1.40;99.90;;;;;;5031352;28;20100;-40
2022/11/22 03:08:03;;;;;;;65.07;30.95;;;1.40;99.90;;;;;;5031158;28;20048;-41
2022/11/22 03:10:28;;;;;;;67.95;32.70;;;1.40;99.90;;;;;;5029229;28;20143;-40
2022/11/22 03:12:58;;;;;;;63.53;30.05;;;1.30;99.90;;;;;;5029579;28;20083;-40
2022/11/22 03:15:24;;;;;;;70.40;32.58;;;1.40;99.90;;;;;;5029914;28;20407;-40
2022/11/22 03:17:56;;;;;;;61.00;29.50;;;1.40;99.90;;;;;;5030487;28;20028;-40
2022/11/22 03:20:21;;;;;;;64.32;30.95;;;1.50;99.90;;;;;;5030277;28;20061;-40
2022/11/22 03:22:47;;;;;;;61.35;29.05;;;1.40;99.90;;;;;;5030749;28;20064;-40
2022/11/22 03:25:12;;;;;;;68.13;31.60;;;1.40;99.90;;;;;;5030532;28;20030;-40
2022/11/22 03:27:38;;;;;;;64.15;30.13;;;1.40;99.90;;;;;;5030829;28;20438;-40
2022/11/22 03:30:04;;;;;;;62.28;30.02;;;1.40;99.90;;;;;;5030366;28;20344;-41
2022/11/22 03:32:29;;;;;;;64.05;29.58;;;1.40;99.90;;;;;;5028613;28;20017;-40
2022/11/22 03:34:55;;;;;;;61.03;31.48;;;1.40;99.90;;;;;;5030227;28;20133;-40
2022/11/22 03:37:20;;;;;;;61.00;34.00;;;1.40;99.90;;;;;;5030175;28;20014;-40
2022/11/22 03:39:46;;;;;;;62.65;29.52;;;1.40;99.90;;;;;;5029766;28;20466;-41
2022/11/22 03:42:11;;;;;;;59.42;29.92;;;1.50;99.90;;;;;;5027008;28;20035;-40
2022/11/22 03:44:37;;;;;;;56.22;28.08;;;1.40;99.90;;;;;;5030110;28;20030;-40
2022/11/22 03:47:02;;;;;;;59.80;28.60;;;1.40;99.90;;;;;;5028456;28;20129;-40
2022/11/22 03:49:28;;;;;;;56.42;28.40;;;1.50;99.90;;;;;;5029748;28;20025;-40
2022/11/22 03:51:53;;;;;;;52.47;27.45;;;1.50;99.90;;;;;;5030228;28;20041;-40
2022/11/22 03:54:18;;;;;;;55.53;26.63;;;1.50;99.90;;;;;;5030178;28;20068;-40
2022/11/22 03:56:44;;;;;;;52.30;26.65;;;1.40;99.90;;;;;;5028844;28;20391;-40
2022/11/22 03:59:09;;;;;;;53.92;28.23;;;1.40;99.90;;;;;;5028428;28;20033;-40
2022/11/22 04:01:35;;;;;;;53.35;26.83;;;1.40;99.90;;;;;;5029466;28;20061;-40
2022/11/22 04:04:00;;;;;;;52.83;27.33;;;1.40;99.90;;;;;;5028741;28;20453;-40
2022/11/22 04:06:26;;;;;;;51.42;25.88;;;1.40;99.90;;;;;;5030181;28;20475;-39
2022/11/22 04:08:51;;;;;;;50.00;26.80;;;1.50;99.90;;;;;;5028931;28;20025;-40
2022/11/22 04:11:17;;;;;;;51.75;25.83;;;1.40;99.90;;;;;;5028748;28;20045;-40
2022/11/22 04:16:26;;;;;;;47.55;24.90;;;1.50;99.90;;;;;;5029860;28;20036;-40
2022/11/22 04:18:52;;;;;;;52.58;25.50;;;1.50;99.90;;;;;;5029859;28;20029;-40
2022/11/22 04:21:32;;;;;;;57.35;27.90;;;1.50;99.90;;;;;;5029325;28;20088;-40
2022/11/22 04:26:42;;;;;;;50.35;24.55;;;1.50;99.90;;;;;;5028732;28;20091;-40
2022/11/22 04:29:08;;;;;;;51.10;25.23;;;1.50;99.90;;;;;;5029305;28;20025;-40
2022/11/22 04:34:17;;;;;;;55.35;25.27;;;1.50;99.90;;;;;;5021633;28;20453;-40
2022/11/22 04:36:43;;;;;;;51.55;26.88;;;1.50;99.90;;;;;;5029128;28;20037;-40
2022/11/22 04:39:08;;;;;;;50.67;25.85;;;1.50;99.90;;;;;;5027781;28;21165;-40
2022/11/22 04:41:34;;;;;;;50.90;24.83;;;1.60;99.90;;;;;;5028974;28;20029;-40
2022/11/22 04:46:43;;;;;;;50.97;26.10;;;1.60;99.90;;;;;;5028311;28;20056;-40
2022/11/22 04:49:08;;;;;;;53.78;25.45;;;1.50;99.90;;;;;;5028499;28;20069;-40
2022/11/22 04:54:18;;;;;;;51.22;28.63;;;1.40;99.90;;;;;;5028854;28;20075;-40
2022/11/22 04:56:43;;;;;;;51.20;26.23;;;1.50;99.90;;;;;;5028926;28;20033;-40
2022/11/22 04:59:09;;;;;;;53.63;25.75;;;1.50;99.90;;;;;;5028502;28;20040;-40
2022/11/22 05:01:34;;;;;;;54.90;27.35;;;1.40;99.90;;;;;;5028231;28;20029;-40
2022/11/22 05:04:00;;;;;;;54.22;25.25;;;1.40;99.90;;;;;;5028666;28;20033;-40
2022/11/22 05:06:25;;;;;;;50.95;26.33;;;1.50;99.90;;;;;;5028658;28;20439;-40
2022/11/22 05:08:51;;;;;;;54.05;26.30;;;1.50;99.90;;;;;;5027698;28;20021;-40
2022/11/22 05:11:17;;;;;;;51.75;27.15;;;1.50;99.90;;;;;;5028136;28;20029;-40
2022/11/22 05:13:43;;;;;;;50.75;26.67;;;1.50;99.90;;;;;;5028789;28;20017;-40
2022/11/22 05:16:12;;;;;;;50.83;27.00;;;1.50;99.90;;;;;;5028685;28;20025;-39
2022/11/22 05:18:38;;;;;;;57.92;28.27;;;1.50;99.90;;;;;;5028644;28;20029;-40
2022/11/22 05:21:05;;;;;;;53.40;28.05;;;1.50;99.90;;;;;;5021019;28;20037;-41
2022/11/22 05:26:14;;;;;;;54.00;27.38;;;1.50;99.90;;;;;;5040079;28;20088;-40
2022/11/22 05:28:40;;;;;;;57.45;28.17;;;1.50;99.90;;;;;;5033394;28;20030;-39
2022/11/22 05:31:11;;;;;;;60.70;30.05;;;1.50;99.90;;;;;;5039174;28;20388;-41
2022/11/22 05:33:38;;;;;;;62.10;28.50;;;1.40;99.90;;;;;;5033550;28;20032;-39
2022/11/22 05:36:05;;;;;;;58.80;28.45;;;1.40;99.90;;;;;;5027340;28;20112;-40
2022/11/22 05:38:30;;;;;;;64.20;31.90;;;1.40;99.90;;;;;;5028581;28;20086;-40
2022/11/22 05:40:56;;;;;;;63.42;30.88;;;1.40;99.90;;;;;;5027892;28;20025;-40
2022/11/22 05:43:21;;;;;;;68.45;31.55;;;1.40;99.90;;;;;;5031201;28;20025;-40
2022/11/22 05:45:47;;;;;;;62.00;30.08;;;1.40;99.90;;;;;;5032394;28;20057;-40
2022/11/22 05:48:12;;;;;;;60.78;30.33;;;1.40;99.90;;;;;;5032510;28;20026;-40
2022/11/22 05:50:38;;;;;;;67.15;31.42;;;1.40;99.90;;;;;;5030733;28;20025;-40
2022/11/22 05:53:03;;;;;;;59.42;29.10;;;1.30;99.90;;;;;;5032528;28;20021;-40
2022/11/22 05:55:29;;;;;;;64.45;30.83;;;1.30;99.90;;;;;;5032653;28;20466;-40
2022/11/22 05:57:58;;;;;;;65.32;30.50;;;1.40;99.90;;;;;;5032520;28;20029;-40
2022/11/22 06:00:24;;;;;;;60.25;30.10;;;1.40;99.90;;;;;;5031745;28;20042;-40
2022/11/22 06:02:49;;;;;;;57.97;29.02;;;1.40;99.90;;;;;;5031956;28;20022;-40
2022/11/22 06:05:15;;;;;;;63.35;29.85;;;1.40;99.90;;;;;;5032080;28;20442;-40
2022/11/22 06:07:40;;;;;;;68.88;31.73;;;1.40;99.90;;;;;;5032056;28;20121;-40
2022/11/22 06:10:06;;;;;;;62.50;29.92;;;1.50;99.90;;;;;;5031496;28;20056;-41
2022/11/22 06:12:35;;;;;;;69.80;32.55;;;1.40;99.90;;;;;;5031790;28;20018;-41
2022/11/22 06:15:04;;;;;;;68.38;30.63;;;1.50;99.90;;;;;;5033381;28;20031;-40
2022/11/22 06:17:32;;;;;;;73.25;32.00;;;1.50;99.90;;;;;;5031426;28;20017;-40
2022/11/22 06:19:58;;;;;;;69.93;31.38;;;1.50;99.90;;;;;;5030843;28;20018;-40
2022/11/22 06:22:27;;;;;;;65.32;31.55;;;1.50;99.90;;;;;;5036430;28;20508;-41
2022/11/22 06:24:55;;;;;;;67.55;31.83;;;1.50;99.90;;;;;;5031099;28;20076;-41
2022/11/22 06:27:21;;;;;;;67.82;31.52;;;1.50;99.90;;;;;;5031494;28;20029;-40
2022/11/22 06:29:46;;;;;;;62.90;32.20;;;1.50;99.90;;;;;;5029816;28;20482;-40
2022/11/22 06:32:12;;;;;;;65.10;30.90;;;1.50;99.90;;;;;;5036716;28;20394;-40
2022/11/22 06:34:38;;;;;;;64.70;32.20;;;1.50;99.90;;;;;;5031133;28;20207;-40
2022/11/22 06:37:03;;;;;;;74.18;34.28;;;1.60;99.90;;;;;;5031122;28;20482;-40
2022/11/22 06:39:29;;;;;;;70.90;32.58;;;1.60;99.90;;;;;;5029019;28;20060;-41
2022/11/22 06:41:54;;;;;;;68.68;33.35;;;1.60;99.90;;;;;;5028379;28;20068;-40
2022/11/22 06:44:20;;;;;;;68.97;31.27;;;1.60;99.90;;;;;;5011717;28;20026;-41
2022/11/22 06:46:46;;;;;;;72.68;33.25;;;1.60;99.90;;;;;;5015377;28;20028;-40
2022/11/22 06:49:12;;;;;;;68.18;31.40;;;1.60;99.90;;;;;;5030688;28;20479;-41
2022/11/22 06:51:38;;;;;;;68.55;32.00;;;1.70;99.90;;;;;;5030084;28;20033;-40
2022/11/22 06:54:03;;;;;;;66.90;30.50;;;1.60;99.90;;;;;;5029309;28;20522;-41
2022/11/22 06:56:31;;;;;;;68.07;32.72;;;1.70;99.90;;;;;;5029654;28;20037;-40
2022/11/22 06:58:57;;;;;;;72.65;33.03;;;1.70;99.90;;;;;;5031037;28;20025;-40
2022/11/22 07:01:23;;;;;;;66.75;31.60;;;1.70;99.90;;;;;;5030445;28;20032;-40
2022/11/22 07:03:50;;;;;;;71.05;32.42;;;1.70;99.90;;;;;;5031186;28;20017;-40
2022/11/22 07:06:17;;;;;;;69.80;32.30;;;1.70;99.90;;;;;;5030601;28;20025;-41
2022/11/22 07:08:44;;;;;;;68.35;29.15;;;1.60;99.90;;;;;;5030925;28;20071;-40
2022/11/22 07:11:12;;;;;;;70.88;31.95;;;1.60;99.90;;;;;;5030328;28;20022;-40
2022/11/22 07:13:38;;;;;;;70.30;31.05;;;1.70;99.90;;;;;;5030399;28;20104;-40
2022/11/22 07:16:07;;;;;;;68.10;30.17;;;1.70;99.90;;;;;;5031140;28;20484;-40
2022/11/22 07:18:33;;;;;;;62.47;30.83;;;1.70;99.90;;;;;;5031173;28;20033;-40
2022/11/22 07:21:01;;;;;;;64.45;30.73;;;1.70;99.90;;;;;;5028795;28;20029;-41
2022/11/22 07:23:26;;;;;;;62.05;29.40;;;1.70;99.90;;;;;;5030600;28;20072;-40
2022/11/22 07:25:52;;;;;;;64.15;31.10;;;1.70;99.90;;;;;;5030632;28;20029;-40
2022/11/22 07:28:17;;;;;;;62.85;29.35;;;1.70;99.90;;;;;;5030354;28;20029;-40
2022/11/22 07:30:43;;;;;;;72.40;31.30;;;1.70;99.90;;;;;;5029403;28;20442;-40
2022/11/22 07:33:08;;;;;;;57.92;28.63;;;1.70;99.90;;;;;;5030159;28;20060;-40
2022/11/22 07:35:35;;;;;;;60.05;30.58;;;1.70;99.90;;;;;;5030317;28;20080;-40
2022/11/22 07:38:01;;;;;;;61.30;31.17;;;1.70;99.90;;;;;;5030391;28;20474;-40
2022/11/22 07:40:27;;;;;;;59.67;28.65;;;1.70;99.90;;;;;;5029784;28;20038;-41
2022/11/22 07:42:52;;;;;;;62.78;30.25;;;1.60;99.90;;;;;;5030340;28;20021;-41
2022/11/22 07:45:18;;;;;;;67.20;31.30;;;1.70;99.90;;;;;;5030228;28;20044;-40
2022/11/22 07:47:43;;;;;;;65.10;30.35;;;1.70;99.90;;;;;;5029712;28;20048;-40
2022/11/22 07:50:09;;;;;;;68.03;32.22;;;1.80;99.90;;;;;;5028439;28;20082;-40
2022/11/22 07:52:34;;;;;;;71.93;32.47;;;1.70;99.90;;;;;;5026458;28;20033;-41
2022/11/22 07:55:00;;;;;;;67.45;33.30;;;1.70;99.90;;;;;;5029322;28;20083;-41
2022/11/22 07:57:25;;;;;;;68.72;32.83;;;1.80;99.90;;;;;;5030029;28;20026;-40
2022/11/22 07:59:51;;;;;;;64.50;31.85;;;1.80;99.90;;;;;;5028999;28;20029;-40
2022/11/22 08:02:16;;;;;;;64.78;31.38;;;1.80;99.90;;;;;;5029282;28;20060;-41
2022/11/22 08:04:42;;;;;;;64.45;31.23;;;1.80;99.90;;;;;;5028595;28;20022;-40
2022/11/22 08:07:08;;;;;;;66.03;32.22;;;1.80;99.90;;;;;;5028402;28;20470;-40
2022/11/22 08:09:34;;;;;;;59.00;31.33;;;1.80;99.90;;;;;;5029140;28;20392;-41
2022/11/22 08:11:59;;;;;;;67.43;33.72;;;1.90;99.90;;;;;;5029754;28;20030;-40
2022/11/22 08:14:25;;;;;;;73.07;34.72;;;1.90;99.90;;;;;;5028741;28;20554;-40
2022/11/22 08:16:50;;;;;;;67.57;32.60;;;1.90;99.90;;;;;;5029824;28;20022;-41
2022/11/22 08:19:16;;;;;;;70.18;33.60;;;1.90;99.90;;;;;;5029135;28;20490;-40
2022/11/22 08:21:47;;;;;;;65.68;33.22;;;2.00;99.90;;;;;;5029039;28;20113;-41
2022/11/22 08:24:12;;;;;;;72.20;34.30;;;1.90;99.90;;;;;;5029154;28;20032;-40
2022/11/22 08:26:38;;;;;;;71.60;35.15;;;1.90;99.90;;;;;;5029957;28;20029;-41
2022/11/22 08:29:05;;;;;;;67.18;32.47;;;2.00;99.90;;;;;;5029373;28;20446;-40
2022/11/22 08:31:31;;;;;;;70.32;33.92;;;2.00;99.90;;;;;;5029079;28;20069;-41
2022/11/22 08:33:56;;;;;;;64.95;33.15;;;2.00;99.90;;;;;;5029427;28;20044;-40
2022/11/22 08:36:22;;;;;;;70.38;33.92;;;1.90;99.90;;;;;;5029226;28;20035;-40
2022/11/22 08:38:47;;;;;;;63.92;34.92;;;2.00;99.90;;;;;;5029290;28;20082;-41
2022/11/22 08:41:13;;;;;;;69.50;34.15;;;2.10;99.90;;;;;;5028335;28;20025;-41
2022/11/22 08:43:38;;;;;;;69.25;33.95;;;2.10;99.90;;;;;;5029071;28;20092;-40
2022/11/22 08:46:05;;;;;;;69.20;33.10;;;2.10;99.90;;;;;;5028838;28;20475;-41
2022/11/22 08:48:33;;;;;;;69.72;35.30;;;2.00;99.90;;;;;;5028984;28;20372;-40
2022/11/22 08:51:01;;;;;;;75.38;34.30;;;2.10;99.90;;;;;;5028467;28;20029;-41
2022/11/22 08:53:28;;;;;;;68.65;33.97;;;2.00;99.90;;;;;;5027494;28;20030;-41
2022/11/22 08:55:54;;;;;;;75.32;35.00;;;2.10;99.90;;;;;;5029049;28;20030;-41
2022/11/22 08:58:20;;;;;;;67.65;33.55;;;2.10;99.90;;;;;;5028824;28;20064;-41
2022/11/22 09:00:46;;;;;;;72.47;33.22;;;2.00;99.90;;;;;;5028119;28;20222;-40
2022/11/22 09:03:11;;;;;;;74.13;35.10;;;2.10;99.90;;;;;;5028737;28;20022;-41
2022/11/22 09:05:37;;;;;;;65.22;32.50;;;2.10;99.90;;;;;;5029016;28;20029;-40
2022/11/22 09:08:03;;;;;;;65.30;32.78;;;2.10;99.90;;;;;;5028791;28;20055;-41
2022/11/22 09:10:28;;;;;;;59.22;30.42;;;2.20;99.90;;;;;;5028442;28;20307;-41
2022/11/22 09:12:54;;;;;;;63.17;32.15;;;2.20;99.90;;;;;;5029082;28;20026;-41
2022/11/22 09:15:19;;;;;;;65.43;32.42;;;2.20;99.90;;;;;;5029312;28;20049;-41
2022/11/22 09:17:45;;;;;;;67.65;34.17;;;2.20;99.90;;;;;;5028584;28;20124;-40
2022/11/22 09:20:11;;;;;;;62.05;32.30;;;2.20;99.90;;;;;;5027764;28;20029;-41
2022/11/22 09:22:37;;;;;;;64.68;33.00;;;2.20;99.90;;;;;;5028396;28;20021;-41
2022/11/22 09:25:04;;;;;;;60.63;30.63;;;2.30;99.90;;;;;;5028390;28;20395;-41
2022/11/22 09:27:31;;;;;;;64.93;32.15;;;2.30;99.90;;;;;;5028449;28;20160;-40
2022/11/22 09:29:57;;;;;;;64.35;31.60;;;2.30;99.90;;;;;;5027971;28;20026;-41
2022/11/22 09:32:22;;;;;;;65.28;32.55;;;2.30;99.90;;;;;;5028276;28;20120;-41
2022/11/22 09:34:48;;;;;;;61.25;32.30;;;2.30;99.90;;;;;;5028023;28;20471;-41
2022/11/22 09:37:17;;;;;;;63.50;30.90;;;2.30;99.90;;;;;;5028323;28;20044;-41
2022/11/22 09:39:45;;;;;;;61.28;31.15;;;2.30;99.90;;;;;;5027742;28;20538;-40
2022/11/22 09:42:33;;;;;;;60.00;31.55;;;2.40;99.90;;;;;;5028312;28;20665;-40
2022/11/22 09:45:22;;;;;;;66.90;32.50;;;2.50;99.90;;;;;;5028353;28;20041;-40
2022/11/22 09:47:59;;;;;;;58.35;31.90;;;2.50;99.90;;;;;;5028339;28;20430;-40
2022/11/22 09:50:53;;;;;;;62.58;31.30;;;2.60;99.90;;;;;;5027851;28;20167;-40
2022/11/22 09:53:28;;;;;;;59.78;30.45;;;2.60;99.90;;;;;;5027542;28;20037;-41
2022/11/22 09:55:58;;;;;;;57.15;29.50;;;2.70;99.90;;;;;;5028465;28;20416;-40
2022/11/22 09:58:33;;;;;;;54.43;29.83;;;2.70;99.90;;;;;;5027951;28;20037;-40
2022/11/22 10:01:07;;;;;;;60.55;29.73;;;2.80;99.90;;;;;;5027539;28;20051;-40
2022/11/22 10:03:42;;;;;;;57.40;29.73;;;2.90;99.90;;;;;;5028011;28;20019;-40
2022/11/22 10:06:32;;;;;;;54.22;30.33;;;2.90;99.90;;;;;;5027914;28;20022;-41
2022/11/22 10:09:16;;;;;;;55.75;29.38;;;3.00;99.90;;;;;;5028303;28;20032;-41
2022/11/22 10:12:07;;;;;;;62.15;30.55;;;3.10;99.90;;;;;;5028241;28;20117;-40
2022/11/22 10:15:01;;;;;;;56.03;29.13;;;3.20;99.90;;;;;;5026584;28;20136;-41
2022/11/22 10:17:53;;;;;;;57.30;29.13;;;3.30;99.90;;;;;;5027592;28;20052;-41
2022/11/22 10:20:28;;;;;;;57.38;28.83;;;3.40;99.90;;;;;;5027348;28;20044;-40
2022/11/22 10:22:54;;;;;;;54.15;28.90;;;3.50;99.90;;;;;;5026613;28;20233;-41
2022/11/22 10:25:43;;;;;;;50.13;27.30;;;3.50;99.90;;;;;;5026584;28;20475;-40
2022/11/22 10:28:33;;;;;;;46.17;26.00;;;3.50;99.90;;;;;;5028653;28;20018;-41
2022/11/22 10:31:42;;;;;;;51.30;28.50;;;3.60;99.90;;;;;;5030700;28;20442;-40
2022/11/22 10:34:29;;;;;;;50.67;25.17;;;3.60;99.90;;;;;;5025593;28;20483;-41
2022/11/22 10:36:58;;;;;;;54.10;28.30;;;3.80;99.90;;;;;;5031123;28;20076;-40
2022/11/22 10:39:55;;;;;;;53.70;28.40;;;3.90;99.90;;;;;;5029023;28;20029;-40
2022/11/22 10:42:58;;;;;;;45.47;27.00;;;3.90;99.90;;;;;;5029685;28;20022;-41
2022/11/22 10:45:24;;;;;;;51.33;30.60;;;3.90;99.90;;;;;;5029820;28;20021;-40
2022/11/22 10:48:15;;;;;;;54.22;29.10;;;3.90;99.90;;;;;;5029992;28;20010;-40
2022/11/22 10:51:23;;;;;;;52.40;29.92;;;3.90;99.90;;;;;;5013742;28;20409;-41
2022/11/22 10:54:16;;;;;;;49.22;27.35;;;3.90;99.90;;;;;;5031330;28;20029;-41
2022/11/22 10:57:10;;;;;;;47.60;27.33;;;3.80;99.90;;;;;;5031459;28;20029;-41
2022/11/22 11:00:11;;;;;;;51.35;28.27;;;3.90;99.90;;;;;;5030722;28;20120;-41
2022/11/22 11:03:00;;;;;;;57.03;28.58;;;3.80;99.90;;;;;;5025938;28;20041;-41
2022/11/22 11:05:33;;;;;;;53.63;29.27;;;3.80;99.90;;;;;;5029738;28;20125;-41
2022/11/22 11:07:59;;;;;;;52.17;28.30;;;3.90;99.90;;;;;;5030791;28;20026;-41
2022/11/22 11:10:31;;;;;;;49.17;27.67;;;3.90;99.90;;;;;;5030127;28;20112;-41
2022/11/22 11:13:05;;;;;;;51.17;27.52;;;4.00;99.90;;;;;;5031207;28;20112;-41
2022/11/22 11:15:53;;;;;;;48.78;28.38;;;4.00;99.90;;;;;;5031021;28;20024;-40
2022/11/22 11:18:34;;;;;;;52.92;29.30;;;4.10;99.90;;;;;;5029437;28;20040;-41
2022/11/22 11:20:59;;;;;;;45.80;27.42;;;4.30;99.90;;;;;;5022405;28;20479;-41
2022/11/22 11:23:25;;;;;;;57.75;29.42;;;4.40;99.90;;;;;;5030576;28;20052;-41
2022/11/22 11:25:51;;;;;;;51.47;29.10;;;4.50;99.90;;;;;;5030668;28;20026;-41
2022/11/22 11:28:22;;;;;;;52.10;29.98;;;4.60;99.90;;;;;;5030585;28;20054;-41
2022/11/22 11:30:56;;;;;;;50.38;28.70;;;4.70;99.90;;;;;;5020373;28;20138;-41
2022/11/22 11:33:34;;;;;;;49.70;27.95;;;4.80;99.90;;;;;;5014380;28;20024;-41
2022/11/22 11:36:05;;;;;;;48.90;27.75;;;4.90;99.90;;;;;;5030388;28;20446;-41
2022/11/22 11:38:36;;;;;;;47.67;27.58;;;5.00;99.90;;;;;;5030169;28;20017;-39
2022/11/22 11:41:26;;;;;;;47.70;26.55;;;5.10;99.90;;;;;;5028223;28;20437;-40
2022/11/22 11:43:54;;;;;;;45.07;26.23;;;5.10;99.90;;;;;;5016805;28;20410;-41
2022/11/22 11:46:26;;;;;;;44.97;26.58;;;5.20;99.90;;;;;;5024885;28;20488;-39
2022/11/22 11:49:07;;;;;;;39.47;23.48;;;5.20;99.90;;;;;;5028718;28;20533;-39
2022/11/22 11:51:47;;;;;;;46.40;27.50;;;5.10;99.90;;;;;;5026917;28;20076;-39
2022/11/22 11:54:16;;;;;;;42.88;25.10;;;5.10;99.90;;;;;;5029730;28;20022;-40
2022/11/22 11:56:50;;;;;;;42.97;25.13;;;5.10;99.90;;;;;;5028063;28;20193;-41
2022/11/22 11:59:36;;;;;;;40.53;23.70;;;5.10;99.90;;;;;;5028824;28;20021;-40
2022/11/22 12:02:22;;;;;;;45.78;25.63;;;5.00;99.90;;;;;;5022297;28;20111;-41
2022/11/22 12:04:51;;;;;;;44.15;24.90;;;5.10;99.90;;;;;;5030362;28;20025;-40
2022/11/22 12:07:26;;;;;;;39.60;23.77;;;5.00;99.90;;;;;;5025536;28;20033;-41
2022/11/22 12:09:54;;;;;;;42.85;24.23;;;5.10;99.90;;;;;;5038713;28;20021;-40
2022/11/22 12:12:43;;;;;;;45.20;25.23;;;5.00;99.90;;;;;;5019416;28;20032;-40
2022/11/22 12:15:29;;;;;;;38.85;22.48;;;5.10;99.90;;;;;;5027838;28;20041;-40
2022/11/22 12:18:26;;;;;;;41.75;23.25;;;4.90;99.90;;;;;;5025954;28;20026;-41
2022/11/22 12:21:14;;;;;;;43.10;24.58;;;4.90;99.90;;;;;;5020883;28;20364;-40
2022/11/22 12:23:59;;;;;;;41.30;23.60;;;4.90;99.90;;;;;;5024074;28;20475;-40
2022/11/22 12:26:26;;;;;;;39.60;22.40;;;4.90;99.90;;;;;;5015241;28;20032;-40
2022/11/22 12:28:53;;;;;;;42.35;22.80;;;4.80;99.90;;;;;;5027447;28;20031;-41
2022/11/22 12:31:24;;;;;;;37.40;21.60;;;4.70;99.90;;;;;;5027244;28;20052;-40
2022/11/22 12:33:59;;;;;;;36.67;21.88;;;4.70;99.90;;;;;;5027778;28;20060;-40
2022/11/22 12:36:32;;;;;;;42.38;22.77;;;4.70;99.90;;;;;;5025925;28;20075;-41
2022/11/22 12:39:00;;;;;;;34.65;21.58;;;4.60;99.90;;;;;;5025417;28;20030;-41
2022/11/22 12:41:28;;;;;;;39.30;22.52;;;4.60;99.90;;;;;;5017221;28;20022;-41
2022/11/22 12:44:04;;;;;;;41.55;23.33;;;4.50;99.90;;;;;;5018538;28;20025;-40
2022/11/22 12:46:37;;;;;;;38.45;21.95;;;4.60;99.90;;;;;;5028648;28;20021;-40
2022/11/22 12:49:23;;;;;;;35.33;20.55;;;4.60;99.90;;;;;;5020007;28;20022;-40
2022/11/22 12:51:56;;;;;;;41.63;22.15;;;4.60;99.90;;;;;;5026195;28;20108;-40
2022/11/22 12:54:33;;;;;;;43.33;24.15;;;4.60;99.90;;;;;;5016038;28;20026;-40
2022/11/22 12:57:06;;;;;;;41.80;23.75;;;4.70;99.90;;;;;;5019085;28;20026;-41
2022/11/22 12:59:41;;;;;;;37.47;22.60;;;4.80;99.90;;;;;;5020718;28;20043;-41
2022/11/22 13:02:31;;;;;;;37.53;21.88;;;4.80;99.90;;;;;;5027251;28;20648;-41
2022/11/22 13:05:00;;;;;;;;;;;4.80;99.90;;;;;;5027853;28;20056;-40
2022/11/22 13:07:54;;;;;;;38.67;22.05;;;4.80;99.90;;;;;;5023173;28;19916;-40